Date,TemperatureHighF,TemperatureAvgF,TemperatureLowF,DewpointHighF,DewpointAvgF,DewpointLowF,HumidityHigh,HumidityAvg,HumidityLow,PressureMaxIn,PressureMinIn,WindSpeedMaxMPH,WindSpeedAvgMPH,GustSpeedMaxMPH,PrecipitationSumIn
2012-1-1,50.4,41.7,34.4,35.4,25.0,13.8,79,53,31,30.52,29.92,27,7,27,0.00
2012-1-2,37.0,29.8,20.6,15.0,9.6,3.4,63,44,26,30.67,30.52,25,6,25,0.00
2012-1-3,45.6,29.4,12.1,17.1,12.8,8.1,90,54,27,30.62,30.23,14,2,14,0.00
2012-1-4,52.8,35.7,23.7,34.9,25.7,17.1,89,68,49,30.35,30.19,16,2,16,0.00
2012-1-5,64.1,41.7,23.9,34.2,27.8,21.7,93,63,28,30.33,30.00,19,2,19,0.00
2012-1-6,67.0,46.9,29.0,46.2,35.9,26.0,96,68,40,30.00,29.84,19,2,19,0.00
2012-1-7,53.4,44.6,33.7,35.2,27.4,22.4,78,52,34,30.20,30.00,16,4,16,0.00
2012-1-8,46.1,42.1,34.7,31.3,28.3,24.0,81,58,47,30.28,30.19,10,2,10,0.00
2012-1-9,48.9,34.5,24.4,35.3,26.7,22.1,96,76,43,30.32,30.18,10,1,10,0.00
2012-1-10,52.0,38.1,23.5,39.4,29.0,21.3,95,74,40,30.20,29.76,12,1,12,0.22
2012-1-11,55.5,43.1,29.2,39.7,35.5,26.9,98,77,43,29.85,29.64,26,4,26,0.06
2012-1-12,29.1,21.8,18.3,27.1,15.8,10.3,93,78,60,30.10,29.85,26,7,26,0.00
2012-1-13,31.7,21.8,14.4,15.5,9.9,5.3,85,61,38,30.27,30.09,16,2,16,0.00
2012-1-14,45.4,31.9,18.3,31.9,23.3,13.7,91,71,56,30.38,30.06,20,3,20,0.00
2012-1-15,53.7,38.4,21.4,33.3,28.2,19.1,95,69,42,30.37,30.06,26,6,26,0.00
2012-1-16,67.3,57.8,42.1,56.8,49.0,33.0,89,73,59,30.06,29.71,28,6,28,0.00
2012-1-17,64.8,37.2,20.4,57.3,29.3,15.2,86,73,56,30.42,29.67,28,7,28,0.00
2012-1-18,38.2,24.8,11.1,21.0,16.1,8.5,94,71,44,30.42,30.08,12,2,12,0.00
2012-1-19,53.6,36.2,23.2,33.3,25.1,18.5,86,65,43,30.08,29.93,13,2,13,0.00
2012-1-20,37.9,31.8,27.1,37.1,29.9,22.8,97,93,81,30.08,29.79,19,5,19,0.00
2012-1-21,35.1,26.7,19.0,28.3,22.8,15.8,96,85,73,30.24,29.95,18,5,18,0.00
2012-1-22,57.3,40.5,28.3,49.4,38.6,26.3,99,94,52,29.98,29.52,25,7,25,0.00
2012-1-23,50.9,39.9,25.3,35.4,29.6,21.8,87,68,42,30.15,29.66,31,5,31,0.00
2012-1-24,57.3,38.9,22.2,30.6,25.5,19.9,93,63,30,30.32,30.15,14,2,14,0.00
2012-1-25,43.6,40.5,37.8,40.6,37.9,29.0,97,91,57,30.25,29.93,17,3,17,1.09
2012-1-26,44.7,38.3,31.5,39.9,36.6,29.5,98,93,78,29.95,29.82,17,2,17,0.03
2012-1-27,46.1,36.5,23.3,39.6,32.1,21.8,98,85,70,30.18,29.94,24,2,24,0.03
2012-1-28,44.6,33.7,24.4,33.1,23.6,18.5,91,69,37,30.46,30.18,25,3,25,0.00
2012-1-29,55.5,36.2,21.8,31.5,24.9,18.8,90,67,35,30.40,30.27,17,2,17,0.00
2012-1-30,65.7,49.4,31.2,45.6,36.0,25.5,82,61,42,30.27,30.04,22,4,22,0.00
2012-1-31,62.4,56.0,46.7,53.6,48.1,35.7,91,75,60,30.07,29.94,21,3,22,0.00
2012-2-1,61.9,47.9,32.0,50.0,37.4,28.4,97,71,36,30.24,30.06,11,2,11,0.00
2012-2-2,61.4,45.4,26.6,36.4,30.1,25.0,96,61,26,30.34,30.23,18,4,18,0.00
2012-2-3,52.4,46.9,44.5,52.1,41.3,33.0,99,83,52,30.23,29.95,24,7,24,0.56
2012-2-4,52.1,46.0,37.3,51.6,43.6,35.4,99,91,82,30.23,29.97,16,4,16,0.00
2012-2-5,42.4,35.3,25.7,37.2,33.0,24.4,96,92,79,30.39,30.23,15,3,15,0.00
2012-2-6,51.7,34.2,20.7,37.5,27.2,19.3,98,79,44,30.41,30.27,11,1,11,0.01
2012-2-7,44.7,35.2,25.0,37.6,32.1,23.5,98,89,69,30.42,30.28,10,2,11,0.05
2012-2-8,37.5,33.9,30.7,36.2,30.7,28.5,96,88,77,30.51,30.42,10,3,12,0.00
2012-2-9,40.8,35.7,31.8,33.4,30.3,28.7,93,81,66,30.44,30.20,8,1,8,0.01
2012-2-10,37.9,31.9,17.2,37.4,27.6,9.3,98,85,57,30.41,30.11,22,5,22,0.09
2012-2-11,28.2,18.3,11.0,11.0,7.5,3.3,82,64,37,30.73,30.42,21,6,21,0.00
2012-2-12,38.2,25.0,9.9,12.4,5.7,-1.2,84,49,19,30.74,30.31,14,2,14,0.00
2012-2-13,32.9,29.6,26.3,30.9,25.0,8.7,98,86,36,30.31,29.89,18,5,18,0.00
2012-2-14,33.9,32.5,31.4,32.9,31.9,30.9,98,98,96,30.03,29.91,14,2,14,0.00
2012-2-15,46.9,42.4,35.8,45.6,41.5,34.2,99,97,90,30.06,29.93,14,3,17,0.10
2012-2-16,50.7,41.5,28.4,45.2,37.3,26.6,99,87,54,30.33,30.04,16,2,16,0.00
2012-2-17,56.1,42.2,29.8,43.9,37.1,28.8,96,83,62,30.27,30.13,15,2,15,0.00
2012-2-18,44.8,41.7,38.2,42.4,35.4,28.5,97,79,63,30.17,30.08,13,2,13,0.04
2012-2-19,51.5,40.5,31.0,32.6,28.4,23.0,89,64,34,30.17,30.08,16,2,16,0.00
2012-2-20,55.4,43.3,33.1,40.4,31.2,26.0,94,65,36,30.19,29.79,27,7,27,0.18
2012-2-21,56.6,44.7,33.3,36.7,32.0,23.4,85,65,28,30.05,29.82,26,4,26,0.00
2012-2-22,69.3,46.4,27.3,50.0,33.5,24.9,95,67,22,29.86,29.52,27,2,27,0.00
2012-2-23,70.2,53.8,40.2,45.0,37.6,28.8,83,56,35,29.76,29.27,23,5,23,0.00
2012-2-24,48.1,38.2,26.6,29.5,24.3,17.1,82,59,32,30.27,29.76,28,6,28,0.00
2012-2-25,50.3,38.4,22.5,27.6,23.7,19.4,94,58,34,30.41,30.18,13,3,13,0.00
2012-2-26,62.9,47.9,37.7,37.8,30.2,24.2,84,53,28,30.22,30.05,21,4,21,0.00
2012-2-27,57.9,48.4,37.5,39.1,31.1,25.0,84,53,32,30.44,30.22,16,3,16,0.00
2012-2-28,65.3,53.1,41.6,57.7,42.3,28.2,93,68,52,30.35,29.67,21,6,21,0.00
2012-2-29,64.3,50.0,34.8,59.2,36.2,25.1,98,64,28,29.94,29.68,36,3,36,0.61
2012-3-1,73.8,51.4,28.7,38.0,31.2,25.9,90,53,20,29.96,29.58,23,3,23,0.00
2012-3-2,57.9,45.3,26.1,54.3,38.3,23.8,93,77,61,29.97,29.40,24,4,24,0.00
2012-3-3,48.3,35.9,24.2,30.6,24.1,19.7,96,66,34,30.11,29.96,24,3,24,0.00
2012-3-4,62.3,44.3,21.9,35.5,28.1,19.9,95,58,27,30.20,29.93,32,4,32,0.00
2012-3-5,59.2,45.7,27.2,28.8,24.4,19.0,85,46,22,30.42,30.20,17,4,17,0.00
2012-3-6,69.3,57.3,44.3,44.0,35.3,27.8,61,45,23,30.23,29.97,30,7,30,0.00
2012-3-7,66.7,62.0,57.0,55.5,51.0,43.2,76,67,59,30.01,29.92,29,6,29,0.00
2012-3-8,62.4,41.9,30.9,54.9,37.8,27.8,93,86,75,30.54,29.95,26,5,26,0.24
2012-3-9,59.6,43.4,27.4,31.5,27.6,23.5,90,58,25,30.61,30.48,15,3,15,0.00
2012-3-10,62.6,46.9,29.3,31.9,28.9,25.1,91,54,25,30.49,30.25,16,3,16,0.00
2012-3-11,56.4,50.8,47.0,56.0,45.8,31.9,99,84,52,30.26,29.92,24,6,24,0.51
2012-3-12,78.1,61.6,49.0,56.3,50.3,43.5,99,72,31,30.03,29.89,19,4,19,0.01
2012-3-13,81.9,62.0,42.4,59.1,48.2,41.3,99,67,28,30.12,30.00,15,2,15,0.00
2012-3-14,82.0,69.4,56.5,64.3,57.9,53.9,93,69,42,30.07,29.97,22,4,22,0.00
2012-3-15,79.6,68.9,56.7,65.2,60.0,53.3,95,74,57,30.10,29.98,21,3,21,0.00
2012-3-16,80.8,67.4,58.2,64.8,59.2,56.1,96,77,51,30.10,29.96,19,2,19,0.00
2012-3-17,80.7,68.9,58.7,63.2,57.8,52.4,92,70,39,30.04,29.89,19,3,19,0.00
2012-3-18,78.4,68.6,61.3,62.7,58.4,55.2,92,71,50,30.01,29.89,22,4,22,0.00
2012-3-19,71.7,67.7,61.9,64.7,60.6,56.6,94,78,63,29.89,29.72,26,6,26,0.34
2012-3-20,69.0,58.6,55.2,61.2,56.7,53.8,98,94,74,29.92,29.75,23,4,23,1.88
2012-3-21,62.5,58.1,52.3,60.3,57.0,51.4,99,96,91,29.92,29.71,32,5,32,0.72
2012-3-22,63.0,52.8,46.6,53.4,49.0,-99.9,99,89,61,30.01,29.88,34,5,34,0.56
2012-3-23,53.8,49.8,44.2,50.0,47.6,43.1,98,92,83,29.98,29.86,21,2,21,0.20
2012-3-24,71.7,56.9,43.9,56.7,48.4,-99.9,99,77,45,30.03,29.95,19,3,19,0.00
2012-3-25,76.7,59.0,42.1,60.3,51.5,41.0,99,79,48,30.13,30.03,10,1,11,0.00
2012-3-26,80.3,65.5,49.9,61.5,55.7,48.5,97,73,43,30.15,30.00,15,3,15,0.00
2012-3-27,81.8,68.5,58.9,61.6,56.2,51.2,88,67,36,30.07,29.93,18,4,18,0.00
2012-3-28,78.8,66.2,53.0,62.9,57.6,51.2,97,76,52,30.05,29.91,10,1,10,0.00
2012-3-29,78.3,65.0,50.0,61.8,54.4,48.6,97,71,45,29.98,29.80,14,2,14,0.00
2012-3-30,79.0,66.1,55.8,64.9,58.5,53.0,95,78,48,29.85,29.73,13,2,13,0.00
2012-3-31,84.1,66.3,51.4,65.9,58.0,50.4,99,78,42,29.89,29.77,11,1,11,0.00
2012-4-1,88.2,71.3,54.5,68.2,60.0,53.1,99,71,38,29.78,29.58,15,2,18,0.00
2012-4-2,86.3,72.8,60.4,64.9,58.4,45.1,96,65,27,29.77,29.62,15,2,15,0.00
2012-4-3,78.8,66.8,58.7,63.5,58.4,55.1,93,76,51,29.88,29.75,13,1,13,0.00
2012-4-4,74.7,65.6,56.6,62.5,58.1,51.9,98,78,54,29.81,29.67,15,2,15,0.00
2012-4-5,65.8,53.6,45.2,58.3,50.4,43.9,98,89,71,30.03,29.69,16,3,16,0.00
2012-4-6,67.0,53.1,40.1,48.0,41.4,36.2,98,69,35,30.19,30.03,15,2,15,0.00
2012-4-7,60.2,53.7,44.3,56.4,45.5,35.8,96,75,54,30.33,30.12,16,2,17,0.27
2012-4-8,68.5,53.9,43.4,55.1,43.4,36.2,95,71,32,30.40,30.22,15,2,15,0.01
2012-4-9,72.2,56.7,39.9,55.3,47.8,38.9,99,75,43,30.25,30.08,8,1,8,0.00
2012-4-10,67.5,56.3,44.2,52.5,41.9,33.0,93,62,35,30.21,30.09,13,2,14,0.01
2012-4-11,62.4,50.4,42.2,40.9,34.0,27.7,88,55,31,30.32,30.19,13,2,13,0.00
2012-4-12,59.4,50.9,41.4,42.8,36.5,29.3,69,58,45,30.24,30.06,18,4,18,0.00
2012-4-13,71.5,59.9,47.2,61.4,52.3,39.9,92,76,63,30.07,29.92,17,4,18,0.54
2012-4-14,75.1,67.8,59.8,65.7,61.6,58.7,98,81,64,29.99,29.73,21,4,21,0.50
2012-4-15,69.4,63.8,52.1,64.2,58.7,-99.9,97,85,77,29.76,29.61,22,5,22,0.58
2012-4-16,66.5,55.2,43.8,49.9,45.8,40.8,94,72,47,30.27,29.76,20,2,20,0.00
2012-4-17,70.4,56.2,37.8,52.3,45.1,36.9,99,70,40,30.35,30.23,15,2,15,0.00
2012-4-18,73.2,57.6,42.1,51.6,46.4,41.0,99,70,38,30.26,30.02,12,2,12,0.00
2012-4-19,77.2,62.9,47.2,55.8,49.1,43.8,90,64,36,30.02,29.75,21,3,21,0.00
2012-4-20,61.3,50.4,37.6,57.5,46.5,35.4,96,87,70,30.06,29.75,18,4,18,0.11
2012-4-21,64.1,47.6,30.7,48.2,39.6,29.6,99,76,47,30.10,29.99,11,2,11,0.00
2012-4-22,56.2,48.3,38.4,46.9,41.4,37.4,98,78,59,30.20,29.98,24,5,25,0.00
2012-4-23,63.1,49.0,33.9,46.0,39.7,32.5,98,73,47,30.24,30.05,16,2,16,0.00
2012-4-24,79.7,57.9,35.0,57.0,46.9,34.0,99,72,41,30.06,29.71,18,2,18,0.00
2012-4-25,85.7,73.1,54.2,67.8,60.4,49.8,95,66,46,29.77,29.59,22,3,22,0.00
2012-4-26,83.2,70.7,59.8,63.6,58.5,50.6,98,69,36,29.94,29.71,13,2,13,0.00
2012-4-27,67.5,61.6,55.0,56.2,54.3,51.4,91,77,65,29.95,29.75,26,6,26,0.05
2012-4-28,77.6,68.6,58.7,68.2,63.1,56.0,97,83,69,29.95,29.79,12,2,12,0.00
2012-4-29,78.2,69.2,63.4,66.9,63.6,60.4,96,83,59,30.02,29.91,15,2,15,0.00
2012-4-30,76.3,66.6,59.2,66.2,62.5,58.4,98,88,64,30.02,29.90,13,2,13,0.56
2012-5-1,82.1,72.1,59.4,68.9,64.0,58.0,96,78,52,29.92,29.78,19,4,24,0.36
2012-5-2,84.2,74.8,65.0,68.1,65.3,62.1,91,74,54,29.88,29.80,20,4,20,0.00
2012-5-3,80.7,72.5,65.5,71.1,67.3,63.8,97,84,65,29.94,29.86,18,4,18,0.00
2012-5-4,84.8,74.8,64.4,74.4,69.2,63.7,99,84,68,29.95,29.81,15,2,15,0.01
2012-5-5,86.6,75.1,63.2,72.6,67.9,61.8,99,80,57,29.89,29.80,15,2,15,0.00
2012-5-6,86.0,72.3,61.4,75.5,66.5,58.7,99,83,61,29.87,29.77,15,2,15,0.00
2012-5-7,74.8,65.4,57.9,67.4,61.9,56.4,98,89,73,29.98,29.77,23,3,23,0.34
2012-5-8,72.5,61.1,51.2,56.5,52.5,46.2,98,76,44,30.08,29.98,13,2,13,0.00
2012-5-9,70.5,57.9,44.7,53.2,48.1,43.7,99,73,41,30.08,29.97,16,2,16,0.00
2012-5-10,76.1,59.7,41.3,56.5,49.2,40.2,99,72,41,30.04,29.94,10,1,10,0.00
2012-5-11,69.9,60.3,48.2,60.6,53.3,47.1,98,79,56,30.13,29.99,12,1,12,0.00
2012-5-12,76.0,64.3,55.2,60.3,56.5,52.5,98,78,45,30.19,30.11,11,1,11,0.00
2012-5-13,75.3,64.5,54.8,63.4,57.2,53.3,98,79,52,30.19,30.09,15,2,15,0.00
2012-5-14,76.8,62.8,49.2,56.8,51.2,45.3,99,70,37,30.17,30.05,11,1,11,0.00
2012-5-15,80.3,63.0,43.8,59.7,50.9,42.5,99,70,35,30.11,30.01,12,1,12,0.00
2012-5-16,83.2,64.9,46.5,61.9,52.6,45.7,100,69,35,30.07,29.99,16,2,16,0.00
2012-5-17,84.2,66.1,45.7,57.9,50.6,44.1,98,63,30,30.07,29.93,12,1,12,0.00
2012-5-18,85.8,69.8,52.3,63.1,54.7,48.5,90,62,35,30.00,29.85,14,2,14,0.00
2012-5-19,85.3,73.5,58.6,64.6,60.5,56.6,97,66,43,29.99,29.88,17,3,17,0.00
2012-5-20,81.0,68.7,58.9,66.0,61.3,56.8,96,79,53,30.11,29.99,8,1,14,0.01
2012-5-21,74.9,64.4,46.2,62.1,50.6,42.5,96,65,33,30.20,30.10,17,3,17,0.00
2012-5-22,81.2,61.0,39.4,56.9,46.3,38.2,99,65,30,30.14,29.88,10,1,10,0.00
2012-5-23,86.3,71.1,52.5,61.1,53.4,46.9,87,56,36,29.89,29.62,21,4,21,0.00
2012-5-24,85.4,76.1,66.3,68.8,63.2,56.5,84,65,54,29.75,29.56,22,5,22,0.00
2012-5-25,89.5,78.2,66.0,71.8,67.7,64.2,95,72,48,29.92,29.75,23,3,23,0.00
2012-5-26,95.8,79.5,65.2,71.9,65.6,56.9,97,67,28,30.00,29.92,14,2,14,0.00
2012-5-27,91.9,79.1,64.8,66.6,60.3,54.5,89,57,29,29.98,29.83,18,3,18,0.00
2012-5-28,90.1,79.9,69.1,70.2,65.4,58.4,91,63,46,29.86,29.76,18,2,18,0.00
2012-5-29,94.4,77.4,63.3,68.4,61.2,49.1,98,64,23,29.89,29.76,19,2,19,0.12
2012-5-30,86.0,73.4,63.3,63.2,59.0,52.6,85,63,36,29.94,29.75,20,3,20,0.01
2012-5-31,71.7,64.6,55.3,64.8,58.5,51.3,98,81,62,29.92,29.68,21,5,21,1.60
2012-6-1,67.2,57.6,50.8,55.4,50.5,46.8,95,79,52,30.05,29.92,15,3,15,0.02
2012-6-2,81.8,65.2,48.5,62.0,55.6,47.4,98,75,44,29.99,29.86,12,1,12,0.00
2012-6-3,84.3,68.3,55.7,73.5,63.3,54.4,99,85,61,29.97,29.78,13,1,13,0.55
2012-6-4,89.8,76.0,63.9,71.4,66.8,62.5,99,76,47,29.90,29.76,12,2,12,0.00
2012-6-5,83.6,73.5,63.2,66.1,59.8,53.4,92,65,37,29.90,29.78,17,3,17,0.00
2012-6-6,81.9,70.5,55.4,60.3,55.9,52.1,92,62,41,30.01,29.89,15,2,15,0.00
2012-6-7,77.3,67.1,52.2,58.9,53.7,49.5,92,64,44,30.10,30.01,12,1,12,0.00
2012-6-8,82.9,67.9,50.4,63.5,54.0,49.3,99,66,34,30.11,29.92,15,1,15,0.00
2012-6-9,87.8,73.2,55.7,67.9,59.8,54.1,97,66,38,29.95,29.77,18,3,18,0.00
2012-6-10,86.8,76.5,66.1,69.5,65.7,60.0,95,71,49,29.83,29.75,17,4,17,0.00
2012-6-11,77.0,69.4,61.4,71.6,66.6,59.9,98,91,79,30.00,29.80,23,2,23,0.67
2012-6-12,83.4,70.1,57.5,62.4,57.8,51.7,98,70,38,30.17,30.00,12,1,12,0.01
2012-6-13,82.5,68.5,53.5,63.6,56.9,49.5,92,68,48,30.11,29.99,8,2,11,0.00
2012-6-14,87.5,72.4,54.1,62.2,56.3,49.0,99,63,30,30.04,29.88,14,2,14,0.00
2012-6-15,90.3,76.3,65.9,70.5,63.7,57.0,91,66,42,29.99,29.89,17,2,17,0.00
2012-6-16,90.5,77.8,63.5,72.1,66.2,62.6,99,71,43,30.08,29.92,18,2,18,0.00
2012-6-17,90.8,78.4,68.2,72.6,68.5,65.2,98,74,47,30.02,29.79,13,2,13,0.24
2012-6-18,91.7,80.5,68.0,71.3,65.2,57.9,91,62,33,29.83,29.76,19,4,19,0.00
2012-6-19,88.5,79.7,70.3,70.4,67.2,64.5,90,67,48,29.93,29.83,20,4,20,0.00
2012-6-20,89.2,79.7,70.8,69.9,65.9,60.7,87,65,41,29.98,29.91,18,3,18,0.00
2012-6-21,82.5,72.2,65.3,70.4,65.4,60.0,96,80,61,30.08,29.95,12,1,12,0.12
2012-6-22,89.2,76.0,63.1,66.7,61.8,54.9,98,66,33,30.04,29.90,12,1,12,0.01
2012-6-23,94.0,79.4,64.3,68.1,61.2,57.9,84,56,34,29.97,29.84,14,2,15,0.00
2012-6-24,99.2,83.3,63.6,71.7,63.8,57.2,85,55,31,29.97,29.84,11,1,13,0.00
2012-6-25,101.6,85.1,66.6,74.6,69.4,65.3,98,64,35,29.90,29.76,13,2,13,0.00
2012-6-26,95.0,82.3,70.8,69.3,60.8,49.9,70,50,34,29.89,29.79,15,3,15,0.00
2012-6-27,102.8,83.1,67.6,64.5,54.9,48.4,66,41,22,29.94,29.85,12,2,12,0.00
2012-6-28,105.8,82.8,58.4,64.4,56.6,48.3,88,48,15,29.99,29.90,15,1,15,0.00
2012-6-29,102.4,83.3,63.1,68.0,62.4,57.7,94,56,24,29.96,29.79,15,2,15,0.00
2012-6-30,101.2,83.0,63.2,68.2,62.3,54.7,95,56,22,29.89,29.79,13,1,13,0.00
2012-7-1,100.8,83.9,66.3,69.3,63.1,57.5,91,55,27,29.98,29.86,15,2,15,0.35
2012-7-2,96.0,81.4,67.4,72.6,68.1,64.6,99,68,37,30.02,29.90,16,2,16,0.00
2012-7-3,97.4,81.3,66.9,72.0,67.9,64.7,98,68,36,30.00,29.85,15,2,15,0.00
2012-7-4,102.3,82.4,63.1,69.1,62.9,55.6,97,60,23,29.99,29.85,16,1,16,0.00
2012-7-5,103.0,85.2,66.5,68.7,63.5,53.4,92,55,20,30.01,29.88,14,1,14,0.00
2012-7-6,102.7,86.6,68.5,69.5,65.6,60.9,90,55,26,30.00,29.88,12,1,12,0.00
2012-7-7,100.5,78.6,70.2,76.1,70.4,63.0,98,80,34,30.02,29.92,29,2,38,0.85
2012-7-8,99.8,78.5,67.5,75.3,69.4,65.2,100,79,33,30.01,29.87,18,2,18,0.20
2012-7-9,85.1,74.5,68.2,75.7,70.6,67.2,98,88,62,30.01,29.91,13,1,13,0.09
2012-7-10,92.7,79.7,69.6,72.1,66.6,59.2,98,69,33,30.00,29.90,14,2,14,0.01
2012-7-11,92.0,78.9,64.0,71.6,64.0,58.8,100,65,34,30.01,29.92,17,2,17,0.00
2012-7-12,93.5,80.0,64.7,70.5,64.8,59.8,99,64,35,29.99,29.91,14,2,14,0.00
2012-7-13,94.7,79.0,64.1,71.0,65.6,59.9,99,68,34,30.02,29.92,18,1,18,0.00
2012-7-14,78.3,72.2,64.8,71.1,67.7,61.3,98,86,68,30.08,29.97,31,1,31,0.64
2012-7-15,90.5,77.0,63.3,73.9,68.9,62.5,100,79,52,30.09,29.95,13,1,13,0.01
2012-7-16,90.3,80.8,69.9,76.5,71.0,68.3,98,74,51,30.01,29.86,11,2,11,0.02
2012-7-17,97.2,83.0,68.6,73.0,69.4,64.7,99,68,36,29.95,29.83,14,2,14,0.00
2012-7-18,99.6,84.2,67.9,72.5,67.8,61.9,98,63,32,29.98,29.83,14,2,14,0.00
2012-7-19,101.7,84.6,69.3,72.3,67.3,60.9,95,62,27,30.01,29.84,18,2,18,0.00
2012-7-20,98.7,83.3,68.1,72.9,65.1,57.1,94,59,28,29.98,29.91,17,2,17,0.00
2012-7-21,97.0,81.6,68.7,69.6,63.6,57.0,88,59,27,30.02,29.94,12,2,12,0.00
2012-7-22,97.1,80.9,63.5,72.6,64.6,59.4,98,62,32,30.08,29.98,14,2,19,0.00
2012-7-23,98.7,85.7,71.1,73.6,67.6,60.9,94,59,32,30.09,29.96,14,2,15,0.00
2012-7-24,99.6,84.7,68.9,72.5,67.6,64.5,89,60,34,30.03,29.85,14,2,16,0.00
2012-7-25,101.4,87.1,71.5,71.3,66.7,63.0,85,55,30,29.89,29.71,17,2,17,0.00
2012-7-26,98.5,83.7,74.2,73.2,69.3,63.9,90,63,40,29.89,29.73,17,2,17,0.00
2012-7-27,102.9,84.4,65.9,72.3,64.2,53.5,99,59,21,29.97,29.88,22,2,22,0.00
2012-7-28,101.4,83.0,61.5,63.4,58.3,53.3,90,49,23,30.06,29.97,12,1,12,0.00
2012-7-29,100.5,85.1,71.1,69.3,65.8,56.8,79,55,31,30.02,29.84,15,3,15,0.00
2012-7-30,105.3,86.9,67.6,69.9,63.0,56.7,88,51,21,29.92,29.81,17,2,17,0.00
2012-7-31,93.6,83.8,75.9,72.9,68.2,63.6,76,60,42,29.93,29.84,10,1,10,0.00
2012-8-1,101.8,84.4,73.2,75.0,69.6,65.7,93,65,32,29.91,29.74,15,2,15,0.06
2012-8-2,99.3,85.9,75.8,73.8,69.9,67.7,85,62,38,29.82,29.65,19,4,19,0.00
2012-8-3,101.0,87.1,73.8,72.8,68.3,63.6,90,57,32,29.79,29.70,13,2,13,0.00
2012-8-4,106.4,87.6,70.8,69.9,68.2,63.9,93,57,28,29.96,29.75,17,3,17,0.13
2012-8-5,72.0,70.3,69.8,69.4,68.7,67.9,98,95,89,30.08,29.92,13,1,13,0.44
2012-8-13,76.2,71.6,65.8,66.5,62.3,59.7,87,73,62,30.00,29.84,7,4,18,0.00
2012-8-14,74.8,66.4,55.8,63.7,58.9,54.4,98,78,55,30.06,29.93,4,1,13,0.00
2012-8-15,92.2,78.1,64.3,66.9,62.9,58.5,84,62,42,29.98,29.83,5,3,16,0.00
2012-8-16,93.9,76.8,67.7,72.0,68.3,63.8,97,77,45,30.00,29.80,5,2,18,4.06
2012-8-17,83.7,70.8,58.7,67.0,57.9,49.4,97,69,31,30.07,29.95,5,2,16,0.90
2012-8-18,81.0,67.2,52.0,64.9,57.6,50.8,98,74,47,30.01,29.86,5,1,13,0.00
2012-8-19,85.5,69.8,56.4,66.8,59.1,50.3,99,74,31,29.97,29.89,5,1,15,0.00
2012-8-20,85.5,69.6,52.1,59.2,52.3,45.0,99,62,25,30.02,29.94,23,1,24,0.00
2012-8-21,91.3,71.2,52.0,61.3,52.7,44.9,99,60,22,30.06,29.99,13,1,13,0.00
2012-8-22,92.4,73.2,54.7,64.4,56.2,46.8,97,62,23,30.11,29.99,13,1,13,0.00
2012-8-23,91.0,74.0,56.4,62.3,56.5,51.9,97,61,28,30.10,29.96,17,2,17,0.00
2012-8-24,88.3,74.6,57.9,64.3,57.0,53.9,89,58,34,30.03,29.89,14,2,14,0.00
2012-8-25,81.5,74.0,70.0,72.7,66.0,55.4,96,78,48,29.93,29.88,16,3,16,0.15
2012-8-26,81.3,74.3,70.3,73.6,70.9,68.9,97,89,74,30.00,29.92,13,2,13,0.02
2012-8-27,88.5,76.7,67.0,73.9,68.5,61.0,99,78,47,30.08,29.99,14,2,14,0.00
2012-8-28,90.9,74.3,57.8,66.7,59.8,55.6,100,66,34,30.11,29.96,17,2,17,0.00
2012-8-29,93.5,77.1,59.3,61.6,55.3,47.6,97,54,22,30.02,29.88,15,2,15,0.00
2012-8-30,94.6,79.5,63.4,68.9,62.4,53.0,80,58,36,29.94,29.83,23,4,23,0.00
2012-8-31,75.3,72.5,69.9,73.0,71.2,68.5,99,96,81,29.87,29.70,20,4,20,1.45
2012-9-1,71.5,69.9,68.3,70.7,69.3,67.7,99,98,96,29.90,29.78,25,4,25,0.46
2012-9-2,88.7,76.1,68.1,74.1,70.1,66.6,99,84,56,29.94,29.84,12,2,13,0.00
2012-9-3,94.8,78.0,63.6,74.6,69.7,63.0,100,79,48,29.92,29.83,7,1,7,0.00
2012-9-4,94.8,81.6,71.6,76.8,72.9,69.9,95,77,51,29.91,29.77,12,2,12,0.00
2012-9-5,93.2,80.6,70.8,72.9,70.1,65.5,94,74,42,29.84,29.77,13,1,13,0.00
2012-9-6,93.3,77.1,67.9,75.4,69.1,64.1,100,79,49,29.91,29.82,19,2,19,0.00
2012-9-7,96.2,75.1,63.6,74.8,67.1,60.8,98,80,36,29.95,29.65,33,3,33,0.95
2012-9-8,73.2,63.0,52.4,61.2,53.8,49.2,97,74,44,30.10,29.95,20,4,20,0.00
2012-9-9,77.8,62.4,48.7,58.8,52.6,47.8,99,74,44,30.15,30.05,15,2,15,0.00
2012-9-10,78.2,63.6,49.0,58.1,53.3,47.6,98,72,44,30.21,30.08,12,2,12,0.00
2012-9-11,84.8,69.7,55.4,64.0,58.3,53.1,94,70,41,30.15,30.03,12,2,12,0.00
2012-9-12,83.3,70.7,57.6,65.6,59.5,55.8,96,70,43,30.15,30.04,17,2,17,0.00
2012-9-13,84.8,70.1,58.6,67.9,61.1,55.7,95,75,49,30.24,30.09,8,2,16,0.00
2012-9-14,62.4,59.0,54.6,60.9,57.4,52.9,97,94,87,30.28,30.20,12,2,12,0.37
2012-9-15,62.9,60.2,57.4,62.6,59.7,56.6,99,98,97,30.28,30.11,21,2,21,2.49
2012-9-16,71.1,64.9,60.6,67.6,63.8,60.2,100,96,87,30.12,29.98,9,0,9,0.01
2012-9-17,74.4,67.4,59.8,66.5,64.2,58.5,100,90,70,29.98,29.81,11,1,11,0.00
2012-9-18,68.8,58.5,46.1,61.2,48.6,40.2,96,73,38,30.11,29.87,17,3,17,0.00
2012-9-19,76.8,59.2,42.9,55.5,48.3,42.0,99,71,42,30.17,30.00,12,2,15,0.00
2012-9-20,78.2,64.9,53.7,62.0,54.4,47.8,95,71,42,30.03,29.97,14,1,14,0.00
2012-9-21,81.3,67.2,55.3,68.3,58.9,49.5,98,77,41,30.00,29.83,18,2,19,1.09
2012-9-22,75.5,59.3,46.5,59.2,47.8,37.6,99,70,37,30.24,29.96,17,2,17,0.00
2012-9-23,69.3,55.0,40.6,51.0,42.8,36.7,92,66,37,30.34,30.23,10,1,10,0.00
2012-9-24,75.1,61.9,47.4,58.1,50.8,42.9,92,68,53,30.25,29.94,18,4,18,0.00
2012-9-25,88.0,74.3,61.6,69.0,62.4,57.2,95,69,45,29.94,29.82,20,2,20,0.00
2012-9-26,76.4,69.0,62.3,69.5,63.9,59.5,97,85,63,30.07,29.90,18,1,18,0.41
2012-9-27,74.6,67.1,61.6,69.3,65.3,59.9,100,94,76,30.13,30.03,21,1,21,1.61
2012-9-28,77.1,67.7,62.7,69.4,65.2,61.3,100,92,71,30.12,30.03,13,1,13,0.02
2012-9-29,74.0,64.2,55.5,61.5,56.2,52.6,95,77,55,30.11,29.99,10,1,10,0.00
2012-9-30,71.2,60.9,52.5,60.4,55.0,51.4,99,82,58,30.00,29.85,7,0,7,0.00
2012-10-1,71.3,60.5,48.7,55.5,52.0,45.8,94,75,50,29.85,29.76,15,2,15,0.00
2012-10-2,71.6,56.5,44.0,57.7,50.2,43.1,99,82,55,29.95,29.84,12,1,12,0.00
2012-10-3,75.2,60.2,47.8,60.0,53.3,46.7,99,81,45,30.06,29.95,10,1,10,0.00
2012-10-4,79.9,65.3,52.7,65.9,58.1,51.9,99,79,49,30.18,30.06,11,2,11,0.00
2012-10-5,61.2,47.6,38.4,56.4,44.8,37.0,96,90,80,30.27,30.11,15,3,15,0.21
2012-10-6,48.7,41.2,34.6,38.6,36.2,32.9,97,83,61,30.35,30.26,12,2,12,0.01
2012-10-7,53.7,42.3,29.8,40.0,35.4,28.3,98,79,48,30.36,30.23,10,1,10,0.00
2012-10-8,59.7,44.2,29.2,42.2,36.4,28.1,99,77,46,30.29,30.10,12,1,12,0.00
2012-10-9,64.3,51.2,36.2,54.4,45.3,35.1,98,82,55,30.13,29.95,14,2,15,0.01
2012-10-10,60.4,49.5,37.2,54.3,40.0,33.1,98,73,39,30.32,30.08,17,2,17,0.00
2012-10-11,59.5,52.6,39.0,52.9,46.1,37.2,94,79,69,30.24,30.13,13,3,13,0.00
2012-10-12,60.3,57.3,55.5,59.3,56.0,52.6,99,96,90,30.29,30.16,14,3,14,0.83
2012-10-13,74.5,63.8,56.1,67.6,61.6,55.8,100,93,73,30.18,29.77,20,5,20,1.03
2012-10-14,69.2,61.1,45.9,62.6,55.6,44.1,99,84,56,30.04,29.66,21,3,21,0.28
2012-10-15,76.0,56.8,41.2,56.4,48.7,40.4,100,78,41,30.07,29.93,14,1,14,0.00
2012-10-16,79.3,61.9,47.6,55.3,48.0,41.6,100,66,29,29.94,29.65,18,2,18,0.01
2012-10-17,68.6,57.6,45.9,62.0,53.5,43.3,96,87,67,29.71,29.44,21,2,21,0.24
2012-10-18,60.7,49.9,36.2,43.2,36.0,30.6,98,64,33,29.81,29.71,25,3,25,0.01
2012-10-19,53.7,49.6,37.7,42.9,39.4,35.7,93,68,53,29.89,29.70,24,3,24,0.00
2012-10-20,73.4,52.9,34.2,49.1,41.8,33.2,99,71,35,29.96,29.83,12,2,12,0.00
2012-10-21,77.3,65.5,54.7,67.5,57.5,46.3,90,75,67,29.91,29.83,15,3,15,0.00
2012-10-22,82.0,70.9,64.8,68.2,65.3,63.0,96,83,62,29.93,29.86,21,4,21,0.05
2012-10-23,81.9,69.6,60.4,66.4,62.2,59.4,98,79,56,29.97,29.83,14,3,15,1.04
2012-10-24,81.8,70.8,61.4,67.3,62.4,59.5,95,76,54,29.96,29.81,17,4,17,0.00
2012-10-25,75.3,58.4,42.8,65.9,54.3,38.2,95,87,69,30.18,29.78,21,6,21,0.13
2012-10-26,48.7,41.7,35.2,38.5,33.9,30.3,84,74,54,30.38,30.18,21,6,21,0.00
2012-10-27,50.2,38.0,29.8,35.8,30.9,27.5,92,77,49,30.39,30.25,13,2,13,0.00
2012-10-28,51.4,37.6,25.6,37.1,30.1,23.8,97,76,48,30.36,30.27,15,2,15,0.01
2012-10-29,55.5,38.9,26.9,38.5,31.2,25.2,98,77,41,30.40,30.18,7,0,7,0.00
2012-10-30,60.8,44.1,28.4,41.6,34.4,27.2,98,73,40,30.18,29.99,7,0,8,0.00
2012-10-31,61.2,48.0,36.9,41.3,35.8,30.9,90,65,41,30.08,30.01,12,1,12,0.00
2012-11-1,71.5,49.3,32.0,47.9,39.7,30.8,99,74,37,30.09,29.95,10,1,10,0.00
2012-11-2,71.3,55.5,38.9,51.6,45.4,37.3,97,71,47,30.02,29.91,14,3,14,0.00
2012-11-3,58.0,50.9,37.0,47.7,42.5,34.5,92,74,57,30.20,29.92,15,3,16,0.00
2012-11-4,62.2,45.6,31.1,44.2,37.9,29.8,98,77,43,30.28,30.12,7,1,7,0.00
2012-11-5,50.1,46.3,42.5,47.2,43.2,38.7,96,89,66,30.13,29.99,18,3,18,0.14
2012-11-6,55.5,45.1,35.8,46.4,40.7,32.0,98,85,65,30.13,30.02,16,2,16,0.01
2012-11-7,52.7,41.2,31.7,39.5,34.1,30.2,95,77,55,30.21,30.08,18,2,18,0.00
2012-11-8,61.7,48.0,32.8,43.2,38.0,31.4,95,70,47,30.23,30.05,18,5,18,0.00
2012-11-9,74.5,59.0,47.7,60.2,50.5,40.5,82,74,58,30.07,29.91,20,5,20,0.00
2012-11-10,74.5,63.0,55.1,56.5,52.4,49.0,82,70,47,30.02,29.85,23,6,23,0.00
2012-11-11,68.3,52.8,31.9,60.2,49.0,29.0,96,87,75,30.22,29.77,25,6,29,0.81
2012-11-12,47.0,33.7,24.0,30.2,25.8,22.0,95,75,42,30.53,30.22,18,2,18,0.00
2012-11-13,55.2,36.4,21.9,35.5,27.5,20.4,97,75,35,30.59,30.44,8,1,8,0.01
2012-11-14,54.1,39.1,28.1,35.8,29.5,25.9,95,72,34,30.50,30.36,7,1,7,0.00
2012-11-15,57.6,40.3,26.6,38.9,31.1,24.3,92,73,39,30.44,30.37,7,0,7,0.00
2012-11-16,62.0,42.2,28.0,39.9,32.9,26.7,98,74,37,30.50,30.42,8,0,8,0.00
2012-11-17,61.1,43.1,30.0,35.6,31.2,27.5,94,67,31,30.51,30.38,11,2,11,0.01
2012-11-18,63.9,48.1,33.3,37.2,32.9,28.7,87,59,29,30.42,30.27,13,3,13,0.00
2012-11-19,54.1,48.1,38.9,48.7,43.4,36.8,97,85,57,30.28,30.16,12,2,12,0.16
2012-11-20,65.7,46.6,34.1,52.2,40.9,32.8,100,83,51,30.27,30.17,13,1,13,0.00
2012-11-21,67.1,44.7,28.7,50.9,36.8,27.7,100,78,36,30.34,30.17,9,1,9,0.01
2012-11-22,64.5,54.3,40.7,52.8,45.6,37.4,93,73,53,30.19,29.99,21,3,21,0.04
2012-11-23,53.0,38.7,26.9,44.5,28.7,19.3,94,68,53,30.45,30.18,26,5,26,0.01
2012-11-24,47.9,33.7,19.4,25.3,21.1,16.0,93,62,35,30.45,30.10,11,1,11,0.00
2012-11-25,65.7,45.2,31.3,40.3,31.4,22.9,87,61,35,30.10,29.92,10,1,10,0.00
2012-11-26,42.2,37.9,31.0,37.1,32.7,26.5,94,82,65,30.42,30.00,21,3,21,0.00
2012-11-27,45.9,30.9,20.4,26.3,22.7,18.0,94,74,38,30.52,30.38,9,1,9,0.00
2012-11-28,52.9,35.8,20.2,34.5,27.0,18.3,96,73,43,30.52,30.33,10,1,10,0.00
2012-11-29,62.1,47.0,34.8,38.2,34.0,30.2,85,63,39,30.33,30.13,15,3,15,0.00
2012-11-30,67.2,52.6,40.5,52.8,43.4,32.7,90,72,56,30.18,30.08,11,2,11,0.00
2012-12-1,68.2,59.8,51.7,59.2,55.1,50.0,96,85,70,30.10,29.90,25,4,25,0.00
2012-12-2,73.4,63.5,56.8,63.0,58.1,54.8,98,84,60,30.07,29.96,13,2,13,0.00
2012-12-3,74.2,64.0,57.5,60.7,56.9,52.6,97,79,51,29.98,29.84,23,4,23,0.01
2012-12-4,62.9,49.6,31.3,58.4,43.8,29.8,97,82,46,30.35,29.95,15,2,15,0.62
2012-12-5,59.2,42.2,28.6,44.6,32.6,27.6,99,73,35,30.40,30.15,12,2,13,0.00
2012-12-6,58.2,44.9,36.1,47.7,38.1,33.0,89,77,67,30.15,29.94,13,2,13,0.00
2012-12-7,55.5,50.5,43.3,51.5,48.7,41.4,97,94,85,29.92,29.84,2,0,5,0.00
2012-12-8,51.7,49.2,46.9,51.2,47.5,45.8,98,94,88,29.97,29.85,11,2,11,0.00
2012-12-9,52.5,46.3,28.1,52.2,44.3,21.0,99,93,75,30.02,29.80,22,4,22,0.03
2012-12-10,31.7,24.4,15.5,23.8,19.0,13.3,92,80,69,30.18,30.00,19,4,19,0.00
2012-12-11,47.2,27.0,13.1,26.8,18.4,11.1,96,74,34,30.31,30.17,11,1,11,0.00
2012-12-12,50.9,32.9,18.4,24.9,19.5,16.2,95,63,26,30.39,30.30,14,2,14,0.00
2012-12-13,57.3,42.0,30.9,28.4,24.2,19.5,66,51,31,30.35,30.20,16,3,16,0.00
2012-12-14,50.3,42.7,31.9,40.2,30.3,24.3,92,63,46,30.23,29.88,21,4,21,0.08
2012-12-15,64.1,50.6,36.0,48.5,42.3,33.0,96,76,48,29.88,29.68,22,4,22,0.03
2012-12-16,63.2,44.9,35.0,41.8,37.2,32.9,97,78,41,29.78,29.65,12,1,12,0.00
2012-12-17,40.3,37.0,26.2,39.3,35.4,25.0,97,94,87,29.87,29.72,12,2,12,0.00
2012-12-18,61.2,40.5,26.5,40.9,33.4,25.4,98,79,44,29.92,29.81,13,2,13,0.01
2012-12-19,58.1,49.2,31.7,56.3,44.4,29.9,96,84,70,29.93,29.46,22,6,22,0.55
2012-12-20,55.5,35.2,26.2,53.6,30.2,18.5,97,82,66,30.28,29.39,35,8,35,0.02
2012-12-21,45.2,30.8,22.6,23.5,19.2,16.5,89,65,34,30.44,30.28,19,3,19,0.00
2012-12-22,61.4,42.2,22.5,27.7,21.0,12.7,88,49,15,30.35,30.04,17,2,17,0.00
2012-12-23,61.9,46.8,35.5,48.1,38.1,25.3,88,72,53,30.04,29.83,10,1,10,0.00
2012-12-24,38.4,30.0,22.7,33.3,25.3,19.5,92,83,68,30.11,29.86,14,4,14,0.00
2012-12-25,30.4,25.7,21.3,24.4,21.3,17.3,91,83,74,30.21,30.06,30,7,30,0.00
2012-12-26,32.0,24.3,19.2,22.3,18.8,15.4,87,80,66,30.27,30.07,25,6,25,0.00
2012-12-27,36.4,27.8,17.9,26.8,22.9,15.7,93,82,66,30.24,30.04,19,4,19,0.00
2012-12-28,34.0,30.6,27.2,32.2,28.8,23.7,97,93,86,30.08,29.95,14,2,14,0.01
2012-12-29,33.1,24.4,15.6,23.9,18.9,13.4,91,80,62,30.48,30.08,19,3,19,0.02
2012-12-30,42.9,28.6,13.6,26.7,19.1,11.7,96,70,42,30.54,30.30,14,2,14,0.01
2012-12-31,34.7,33.8,32.2,34.0,31.4,22.5,98,91,61,30.32,30.06,8,1,8,0.30
2013-1-1,34.7,28.0,17.8,34.1,26.6,15.6,98,94,87,30.33,30.10,14,3,14,0.01